sensor_id;sensor_type;location;lat;lon;timestamp;P1;durP1;ratioP1;P2;durP2;ratioP2
13303;SDS011;6720;51.958;4.540;2023-05-10T00:00:09;58.20;;;34.57;;
13303;SDS011;6720;51.958;4.540;2023-05-10T00:02:35;51.07;;;31.33;;
13303;SDS011;6720;51.958;4.540;2023-05-10T00:05:01;56.17;;;34.90;;
13303;SDS011;6720;51.958;4.540;2023-05-10T00:07:26;52.27;;;35.20;;
13303;SDS011;6720;51.958;4.540;2023-05-10T00:09:52;54.13;;;32.97;;
13303;SDS011;6720;51.958;4.540;2023-05-10T00:12:17;57.33;;;34.87;;
13303;SDS011;6720;51.958;4.540;2023-05-10T00:14:43;62.63;;;36.63;;
13303;SDS011;6720;51.958;4.540;2023-05-10T00:17:08;62.67;;;37.77;;
13303;SDS011;6720;51.958;4.540;2023-05-10T00:19:33;62.03;;;37.93;;
13303;SDS011;6720;51.958;4.540;2023-05-10T00:21:59;62.30;;;37.80;;
13303;SDS011;6720;51.958;4.540;2023-05-10T00:24:24;62.20;;;37.37;;
13303;SDS011;6720;51.958;4.540;2023-05-10T00:26:50;67.93;;;41.23;;
13303;SDS011;6720;51.958;4.540;2023-05-10T00:29:15;69.57;;;43.20;;
13303;SDS011;6720;51.958;4.540;2023-05-10T00:31:40;68.70;;;42.30;;
13303;SDS011;6720;51.958;4.540;2023-05-10T00:34:06;75.67;;;41.73;;
13303;SDS011;6720;51.958;4.540;2023-05-10T00:36:31;75.83;;;42.13;;
13303;SDS011;6720;51.958;4.540;2023-05-10T00:38:57;67.73;;;41.77;;
13303;SDS011;6720;51.958;4.540;2023-05-10T00:41:22;69.27;;;41.43;;
13303;SDS011;6720;51.958;4.540;2023-05-10T00:43:47;78.57;;;43.57;;
13303;SDS011;6720;51.958;4.540;2023-05-10T00:46:14;78.17;;;43.67;;
13303;SDS011;6720;51.958;4.540;2023-05-10T00:48:40;90.83;;;45.87;;
13303;SDS011;6720;51.958;4.540;2023-05-10T00:51:06;93.73;;;45.57;;
13303;SDS011;6720;51.958;4.540;2023-05-10T00:53:31;98.80;;;46.20;;
13303;SDS011;6720;51.958;4.540;2023-05-10T00:55:57;96.47;;;46.27;;
13303;SDS011;6720;51.958;4.540;2023-05-10T00:58:24;106.53;;;46.73;;
13303;SDS011;6720;51.958;4.540;2023-05-10T01:00:53;103.73;;;47.17;;
13303;SDS011;6720;51.958;4.540;2023-05-10T01:03:20;111.07;;;47.73;;
13303;SDS011;6720;51.958;4.540;2023-05-10T01:05:46;112.10;;;47.40;;
13303;SDS011;6720;51.958;4.540;2023-05-10T01:08:11;109.93;;;46.03;;
13303;SDS011;6720;51.958;4.540;2023-05-10T01:10:36;104.17;;;47.90;;
13303;SDS011;6720;51.958;4.540;2023-05-10T01:13:02;102.77;;;45.67;;
13303;SDS011;6720;51.958;4.540;2023-05-10T01:15:28;93.47;;;46.83;;
13303;SDS011;6720;51.958;4.540;2023-05-10T01:17:54;101.17;;;46.43;;
13303;SDS011;6720;51.958;4.540;2023-05-10T01:20:21;93.90;;;44.03;;
13303;SDS011;6720;51.958;4.540;2023-05-10T01:25:32;90.27;;;46.43;;
13303;SDS011;6720;51.958;4.540;2023-05-10T01:33:56;78.97;;;40.97;;
13303;SDS011;6720;51.958;4.540;2023-05-10T01:36:35;82.80;;;42.70;;
13303;SDS011;6720;51.958;4.540;2023-05-10T01:41:51;83.63;;;39.83;;
13303;SDS011;6720;51.958;4.540;2023-05-10T01:44:31;82.73;;;40.33;;
13303;SDS011;6720;51.958;4.540;2023-05-10T01:47:17;88.87;;;42.33;;
13303;SDS011;6720;51.958;4.540;2023-05-10T01:49:52;85.90;;;41.03;;
13303;SDS011;6720;51.958;4.540;2023-05-10T01:52:22;83.70;;;41.37;;
13303;SDS011;6720;51.958;4.540;2023-05-10T01:55:13;91.40;;;41.90;;
13303;SDS011;6720;51.958;4.540;2023-05-10T01:57:43;87.63;;;43.13;;
13303;SDS011;6720;51.958;4.540;2023-05-10T02:00:11;93.60;;;43.67;;
13303;SDS011;6720;51.958;4.540;2023-05-10T02:02:39;83.13;;;41.67;;
13303;SDS011;6720;51.958;4.540;2023-05-10T02:05:07;92.43;;;40.53;;
13303;SDS011;6720;51.958;4.540;2023-05-10T02:07:35;86.23;;;40.77;;
13303;SDS011;6720;51.958;4.540;2023-05-10T02:10:04;90.20;;;43.07;;
13303;SDS011;6720;51.958;4.540;2023-05-10T02:12:32;94.77;;;43.60;;
13303;SDS011;6720;51.958;4.540;2023-05-10T02:15:02;92.73;;;42.50;;
13303;SDS011;6720;51.958;4.540;2023-05-10T02:17:30;91.67;;;41.87;;
13303;SDS011;6720;51.958;4.540;2023-05-10T02:19:57;91.53;;;49.73;;
13303;SDS011;6720;51.958;4.540;2023-05-10T02:22:24;90.23;;;41.87;;
13303;SDS011;6720;51.958;4.540;2023-05-10T02:24:51;92.30;;;43.43;;
13303;SDS011;6720;51.958;4.540;2023-05-10T02:27:18;86.37;;;42.13;;
13303;SDS011;6720;51.958;4.540;2023-05-10T02:29:45;75.63;;;38.43;;
13303;SDS011;6720;51.958;4.540;2023-05-10T02:32:12;59.73;;;34.83;;
13303;SDS011;6720;51.958;4.540;2023-05-10T02:34:39;71.97;;;36.17;;
13303;SDS011;6720;51.958;4.540;2023-05-10T02:37:05;66.87;;;35.23;;
13303;SDS011;6720;51.958;4.540;2023-05-10T02:39:32;59.80;;;36.17;;
13303;SDS011;6720;51.958;4.540;2023-05-10T02:41:58;58.30;;;33.37;;
13303;SDS011;6720;51.958;4.540;2023-05-10T02:44:23;55.50;;;33.30;;
13303;SDS011;6720;51.958;4.540;2023-05-10T02:46:52;62.43;;;35.00;;
13303;SDS011;6720;51.958;4.540;2023-05-10T02:49:20;52.27;;;31.50;;
13303;SDS011;6720;51.958;4.540;2023-05-10T02:51:56;47.43;;;29.40;;
13303;SDS011;6720;51.958;4.540;2023-05-10T02:54:27;44.30;;;29.43;;
13303;SDS011;6720;51.958;4.540;2023-05-10T02:56:56;43.20;;;30.07;;
13303;SDS011;6720;51.958;4.540;2023-05-10T02:59:24;49.67;;;29.80;;
13303;SDS011;6720;51.958;4.540;2023-05-10T03:01:49;45.53;;;29.70;;
13303;SDS011;6720;51.958;4.540;2023-05-10T03:04:15;49.70;;;31.10;;
13303;SDS011;6720;51.958;4.540;2023-05-10T03:06:41;48.43;;;31.40;;
13303;SDS011;6720;51.958;4.540;2023-05-10T03:09:07;57.43;;;32.33;;
13303;SDS011;6720;51.958;4.540;2023-05-10T03:14:21;51.20;;;32.40;;
13303;SDS011;6720;51.958;4.540;2023-05-10T03:16:55;53.30;;;32.70;;
13303;SDS011;6720;51.958;4.540;2023-05-10T03:19:27;53.33;;;34.77;;
13303;SDS011;6720;51.958;4.540;2023-05-10T03:21:59;57.40;;;34.10;;
13303;SDS011;6720;51.958;4.540;2023-05-10T03:24:28;53.03;;;34.17;;
13303;SDS011;6720;51.958;4.540;2023-05-10T03:26:55;54.47;;;34.00;;
13303;SDS011;6720;51.958;4.540;2023-05-10T03:29:24;62.87;;;36.97;;
13303;SDS011;6720;51.958;4.540;2023-05-10T03:31:51;61.97;;;40.13;;
13303;SDS011;6720;51.958;4.540;2023-05-10T03:34:16;55.70;;;35.67;;
13303;SDS011;6720;51.958;4.540;2023-05-10T03:36:42;48.00;;;29.93;;
13303;SDS011;6720;51.958;4.540;2023-05-10T03:39:07;47.90;;;32.03;;
13303;SDS011;6720;51.958;4.540;2023-05-10T03:41:33;57.20;;;36.17;;
13303;SDS011;6720;51.958;4.540;2023-05-10T03:43:59;49.37;;;31.60;;
13303;SDS011;6720;51.958;4.540;2023-05-10T03:46:24;50.40;;;33.57;;
13303;SDS011;6720;51.958;4.540;2023-05-10T03:48:49;46.63;;;29.13;;
13303;SDS011;6720;51.958;4.540;2023-05-10T03:51:15;52.93;;;33.50;;
13303;SDS011;6720;51.958;4.540;2023-05-10T03:53:40;56.37;;;35.47;;
13303;SDS011;6720;51.958;4.540;2023-05-10T03:56:05;56.87;;;35.93;;
13303;SDS011;6720;51.958;4.540;2023-05-10T03:58:31;64.13;;;36.63;;
13303;SDS011;6720;51.958;4.540;2023-05-10T04:00:56;63.53;;;37.50;;
13303;SDS011;6720;51.958;4.540;2023-05-10T04:03:22;65.63;;;39.63;;
13303;SDS011;6720;51.958;4.540;2023-05-10T04:05:47;67.87;;;37.03;;
13303;SDS011;6720;51.958;4.540;2023-05-10T04:08:22;67.27;;;42.97;;
13303;SDS011;6720;51.958;4.540;2023-05-10T04:10:48;86.60;;;53.88;;
13303;SDS011;6720;51.958;4.540;2023-05-10T04:13:13;70.23;;;41.27;;
13303;SDS011;6720;51.958;4.540;2023-05-10T04:15:38;66.80;;;38.70;;
13303;SDS011;6720;51.958;4.540;2023-05-10T04:18:05;67.23;;;37.43;;
13303;SDS011;6720;51.958;4.540;2023-05-10T04:20:32;67.23;;;37.77;;
13303;SDS011;6720;51.958;4.540;2023-05-10T04:22:57;59.30;;;34.10;;
13303;SDS011;6720;51.958;4.540;2023-05-10T04:25:23;59.60;;;31.77;;
13303;SDS011;6720;51.958;4.540;2023-05-10T04:27:48;56.70;;;30.70;;
13303;SDS011;6720;51.958;4.540;2023-05-10T04:30:14;56.30;;;28.57;;
13303;SDS011;6720;51.958;4.540;2023-05-10T04:32:39;57.43;;;29.47;;
13303;SDS011;6720;51.958;4.540;2023-05-10T04:35:05;61.27;;;31.67;;
13303;SDS011;6720;51.958;4.540;2023-05-10T04:37:30;61.80;;;31.03;;
13303;SDS011;6720;51.958;4.540;2023-05-10T04:39:56;64.03;;;32.40;;
13303;SDS011;6720;51.958;4.540;2023-05-10T04:42:21;58.33;;;30.17;;
13303;SDS011;6720;51.958;4.540;2023-05-10T04:44:46;55.20;;;28.20;;
13303;SDS011;6720;51.958;4.540;2023-05-10T04:47:12;61.83;;;29.60;;
13303;SDS011;6720;51.958;4.540;2023-05-10T04:49:38;49.53;;;24.13;;
13303;SDS011;6720;51.958;4.540;2023-05-10T04:52:03;48.03;;;25.83;;
13303;SDS011;6720;51.958;4.540;2023-05-10T04:54:29;54.50;;;26.00;;
13303;SDS011;6720;51.958;4.540;2023-05-10T04:56:54;55.07;;;27.67;;
13303;SDS011;6720;51.958;4.540;2023-05-10T04:59:20;54.43;;;28.37;;
13303;SDS011;6720;51.958;4.540;2023-05-10T05:01:45;59.07;;;29.73;;
13303;SDS011;6720;51.958;4.540;2023-05-10T05:04:10;52.97;;;25.90;;
13303;SDS011;6720;51.958;4.540;2023-05-10T05:06:36;63.63;;;25.67;;
13303;SDS011;6720;51.958;4.540;2023-05-10T05:09:01;62.03;;;25.63;;
13303;SDS011;6720;51.958;4.540;2023-05-10T05:11:27;59.40;;;22.80;;
13303;SDS011;6720;51.958;4.540;2023-05-10T05:13:53;51.97;;;22.77;;
13303;SDS011;6720;51.958;4.540;2023-05-10T05:16:19;32.47;;;15.83;;
13303;SDS011;6720;51.958;4.540;2023-05-10T05:18:44;38.10;;;17.43;;
13303;SDS011;6720;51.958;4.540;2023-05-10T05:21:13;36.40;;;19.30;;
13303;SDS011;6720;51.958;4.540;2023-05-10T05:23:42;32.63;;;16.77;;
13303;SDS011;6720;51.958;4.540;2023-05-10T05:26:08;29.87;;;16.73;;
13303;SDS011;6720;51.958;4.540;2023-05-10T05:28:33;29.70;;;16.40;;
13303;SDS011;6720;51.958;4.540;2023-05-10T05:31:02;22.87;;;13.90;;
13303;SDS011;6720;51.958;4.540;2023-05-10T05:33:28;24.63;;;14.00;;
13303;SDS011;6720;51.958;4.540;2023-05-10T05:35:53;19.57;;;12.07;;
13303;SDS011;6720;51.958;4.540;2023-05-10T05:38:19;17.67;;;10.90;;
13303;SDS011;6720;51.958;4.540;2023-05-10T05:40:44;16.93;;;11.20;;
13303;SDS011;6720;51.958;4.540;2023-05-10T05:43:10;18.00;;;11.27;;
13303;SDS011;6720;51.958;4.540;2023-05-10T05:45:36;17.13;;;10.37;;
13303;SDS011;6720;51.958;4.540;2023-05-10T05:48:01;14.57;;;10.07;;
13303;SDS011;6720;51.958;4.540;2023-05-10T05:50:28;14.90;;;10.23;;
13303;SDS011;6720;51.958;4.540;2023-05-10T05:52:56;14.80;;;10.47;;
13303;SDS011;6720;51.958;4.540;2023-05-10T05:55:22;14.77;;;10.83;;
13303;SDS011;6720;51.958;4.540;2023-05-10T05:57:49;15.03;;;10.83;;
13303;SDS011;6720;51.958;4.540;2023-05-10T06:00:14;15.63;;;12.10;;
13303;SDS011;6720;51.958;4.540;2023-05-10T06:02:43;17.63;;;13.63;;
13303;SDS011;6720;51.958;4.540;2023-05-10T06:05:08;15.07;;;12.17;;
13303;SDS011;6720;51.958;4.540;2023-05-10T06:07:34;16.17;;;12.33;;
13303;SDS011;6720;51.958;4.540;2023-05-10T06:09:59;14.50;;;12.47;;
13303;SDS011;6720;51.958;4.540;2023-05-10T06:12:25;17.73;;;12.67;;
13303;SDS011;6720;51.958;4.540;2023-05-10T06:14:50;14.30;;;12.40;;
13303;SDS011;6720;51.958;4.540;2023-05-10T06:17:16;15.60;;;12.77;;
13303;SDS011;6720;51.958;4.540;2023-05-10T06:19:41;15.43;;;13.27;;
13303;SDS011;6720;51.958;4.540;2023-05-10T06:22:07;17.13;;;13.23;;
13303;SDS011;6720;51.958;4.540;2023-05-10T06:24:32;18.00;;;13.80;;
13303;SDS011;6720;51.958;4.540;2023-05-10T06:26:57;17.77;;;14.30;;
13303;SDS011;6720;51.958;4.540;2023-05-10T06:29:25;22.93;;;14.60;;
13303;SDS011;6720;51.958;4.540;2023-05-10T06:31:50;19.70;;;15.50;;
13303;SDS011;6720;51.958;4.540;2023-05-10T06:34:16;19.50;;;15.70;;
13303;SDS011;6720;51.958;4.540;2023-05-10T06:36:41;18.17;;;15.10;;
13303;SDS011;6720;51.958;4.540;2023-05-10T06:39:06;19.20;;;15.37;;
13303;SDS011;6720;51.958;4.540;2023-05-10T06:41:32;20.40;;;16.00;;
13303;SDS011;6720;51.958;4.540;2023-05-10T06:43:58;18.70;;;14.17;;
13303;SDS011;6720;51.958;4.540;2023-05-10T06:46:24;20.73;;;16.33;;
13303;SDS011;6720;51.958;4.540;2023-05-10T06:48:49;18.40;;;15.63;;
13303;SDS011;6720;51.958;4.540;2023-05-10T06:51:15;19.23;;;14.30;;
13303;SDS011;6720;51.958;4.540;2023-05-10T06:53:40;16.90;;;12.30;;
13303;SDS011;6720;51.958;4.540;2023-05-10T06:56:06;16.63;;;13.03;;
13303;SDS011;6720;51.958;4.540;2023-05-10T06:58:32;14.67;;;12.30;;
13303;SDS011;6720;51.958;4.540;2023-05-10T07:01:07;14.90;;;12.63;;
13303;SDS011;6720;51.958;4.540;2023-05-10T07:03:32;13.43;;;11.00;;
13303;SDS011;6720;51.958;4.540;2023-05-10T07:06:01;11.00;;;9.70;;
13303;SDS011;6720;51.958;4.540;2023-05-10T07:08:29;11.87;;;10.07;;
13303;SDS011;6720;51.958;4.540;2023-05-10T07:11:00;11.27;;;10.03;;
13303;SDS011;6720;51.958;4.540;2023-05-10T07:13:28;13.17;;;10.73;;
13303;SDS011;6720;51.958;4.540;2023-05-10T07:15:55;11.50;;;9.70;;
13303;SDS011;6720;51.958;4.540;2023-05-10T07:18:20;11.63;;;9.63;;
13303;SDS011;6720;51.958;4.540;2023-05-10T07:20:45;12.03;;;10.07;;
13303;SDS011;6720;51.958;4.540;2023-05-10T07:23:11;12.43;;;9.37;;
13303;SDS011;6720;51.958;4.540;2023-05-10T07:25:37;13.57;;;10.27;;
13303;SDS011;6720;51.958;4.540;2023-05-10T07:28:03;11.53;;;10.17;;
13303;SDS011;6720;51.958;4.540;2023-05-10T07:30:29;12.93;;;10.23;;
13303;SDS011;6720;51.958;4.540;2023-05-10T07:32:54;13.47;;;10.27;;
13303;SDS011;6720;51.958;4.540;2023-05-10T07:35:20;13.93;;;10.57;;
13303;SDS011;6720;51.958;4.540;2023-05-10T07:37:45;14.13;;;10.90;;
13303;SDS011;6720;51.958;4.540;2023-05-10T07:40:11;13.67;;;10.87;;
13303;SDS011;6720;51.958;4.540;2023-05-10T07:42:36;12.73;;;10.73;;
13303;SDS011;6720;51.958;4.540;2023-05-10T07:45:02;13.40;;;11.13;;
13303;SDS011;6720;51.958;4.540;2023-05-10T07:47:28;15.43;;;11.47;;
13303;SDS011;6720;51.958;4.540;2023-05-10T07:49:54;12.73;;;11.40;;
13303;SDS011;6720;51.958;4.540;2023-05-10T07:52:19;15.87;;;12.60;;
13303;SDS011;6720;51.958;4.540;2023-05-10T07:54:45;13.27;;;10.87;;
13303;SDS011;6720;51.958;4.540;2023-05-10T07:57:11;11.53;;;9.53;;
13303;SDS011;6720;51.958;4.540;2023-05-10T07:59:36;10.00;;;9.00;;
13303;SDS011;6720;51.958;4.540;2023-05-10T08:02:01;9.97;;;8.97;;
13303;SDS011;6720;51.958;4.540;2023-05-10T08:04:27;10.43;;;8.63;;
13303;SDS011;6720;51.958;4.540;2023-05-10T08:06:52;10.73;;;8.70;;
13303;SDS011;6720;51.958;4.540;2023-05-10T08:09:19;9.67;;;8.70;;
13303;SDS011;6720;51.958;4.540;2023-05-10T08:11:48;10.90;;;8.90;;
13303;SDS011;6720;51.958;4.540;2023-05-10T08:14:14;9.93;;;8.90;;
13303;SDS011;6720;51.958;4.540;2023-05-10T08:16:39;9.47;;;8.47;;
13303;SDS011;6720;51.958;4.540;2023-05-10T08:19:05;11.40;;;9.37;;
13303;SDS011;6720;51.958;4.540;2023-05-10T08:21:30;11.83;;;8.93;;
13303;SDS011;6720;51.958;4.540;2023-05-10T08:23:56;10.67;;;8.50;;
13303;SDS011;6720;51.958;4.540;2023-05-10T08:26:21;10.33;;;9.07;;
13303;SDS011;6720;51.958;4.540;2023-05-10T08:28:47;10.93;;;8.50;;
13303;SDS011;6720;51.958;4.540;2023-05-10T08:31:12;10.50;;;9.00;;
13303;SDS011;6720;51.958;4.540;2023-05-10T08:33:40;9.03;;;8.13;;
13303;SDS011;6720;51.958;4.540;2023-05-10T08:36:05;9.20;;;7.87;;
13303;SDS011;6720;51.958;4.540;2023-05-10T08:38:31;10.47;;;8.80;;
13303;SDS011;6720;51.958;4.540;2023-05-10T08:40:56;10.33;;;8.60;;
13303;SDS011;6720;51.958;4.540;2023-05-10T08:43:26;11.30;;;8.50;;
13303;SDS011;6720;51.958;4.540;2023-05-10T08:45:53;9.00;;;8.10;;
13303;SDS011;6720;51.958;4.540;2023-05-10T08:48:21;10.33;;;8.77;;
13303;SDS011;6720;51.958;4.540;2023-05-10T08:50:49;8.60;;;7.53;;
13303;SDS011;6720;51.958;4.540;2023-05-10T08:53:18;11.07;;;8.30;;
13303;SDS011;6720;51.958;4.540;2023-05-10T08:55:45;8.47;;;7.67;;
13303;SDS011;6720;51.958;4.540;2023-05-10T08:58:12;10.03;;;8.20;;
13303;SDS011;6720;51.958;4.540;2023-05-10T09:00:37;10.67;;;8.00;;
13303;SDS011;6720;51.958;4.540;2023-05-10T09:03:03;8.50;;;7.43;;
13303;SDS011;6720;51.958;4.540;2023-05-10T09:05:30;8.70;;;7.27;;
13303;SDS011;6720;51.958;4.540;2023-05-10T09:07:55;9.47;;;8.07;;
13303;SDS011;6720;51.958;4.540;2023-05-10T09:10:21;10.10;;;8.00;;
13303;SDS011;6720;51.958;4.540;2023-05-10T09:12:51;9.77;;;7.37;;
13303;SDS011;6720;51.958;4.540;2023-05-10T09:15:17;7.73;;;6.83;;
13303;SDS011;6720;51.958;4.540;2023-05-10T09:17:44;6.80;;;6.10;;
13303;SDS011;6720;51.958;4.540;2023-05-10T09:20:11;8.37;;;6.10;;
13303;SDS011;6720;51.958;4.540;2023-05-10T09:22:36;7.17;;;6.47;;
13303;SDS011;6720;51.958;4.540;2023-05-10T09:25:13;8.33;;;6.47;;
13303;SDS011;6720;51.958;4.540;2023-05-10T09:27:40;7.53;;;6.70;;
13303;SDS011;6720;51.958;4.540;2023-05-10T09:30:15;7.30;;;6.57;;
13303;SDS011;6720;51.958;4.540;2023-05-10T09:32:42;9.50;;;7.37;;
13303;SDS011;6720;51.958;4.540;2023-05-10T09:35:09;7.80;;;6.97;;
13303;SDS011;6720;51.958;4.540;2023-05-10T09:37:36;6.80;;;6.20;;
13303;SDS011;6720;51.958;4.540;2023-05-10T09:40:06;8.10;;;6.17;;
13303;SDS011;6720;51.958;4.540;2023-05-10T09:42:33;6.53;;;5.57;;
13303;SDS011;6720;51.958;4.540;2023-05-10T09:45:02;6.10;;;5.50;;
13303;SDS011;6720;51.958;4.540;2023-05-10T09:47:28;8.67;;;6.23;;
13303;SDS011;6720;51.958;4.540;2023-05-10T09:49:55;7.07;;;6.37;;
13303;SDS011;6720;51.958;4.540;2023-05-10T09:52:27;6.87;;;6.17;;
13303;SDS011;6720;51.958;4.540;2023-05-10T09:54:53;8.23;;;7.43;;
13303;SDS011;6720;51.958;4.540;2023-05-10T09:57:23;11.30;;;9.97;;
13303;SDS011;6720;51.958;4.540;2023-05-10T09:59:49;8.90;;;8.00;;
13303;SDS011;6720;51.958;4.540;2023-05-10T10:02:15;9.17;;;8.20;;
13303;SDS011;6720;51.958;4.540;2023-05-10T10:04:41;9.87;;;7.70;;
13303;SDS011;6720;51.958;4.540;2023-05-10T10:07:08;10.07;;;7.80;;
13303;SDS011;6720;51.958;4.540;2023-05-10T10:09:33;9.40;;;8.50;;
13303;SDS011;6720;51.958;4.540;2023-05-10T10:12:00;9.70;;;8.43;;
13303;SDS011;6720;51.958;4.540;2023-05-10T10:14:27;10.33;;;9.43;;
13303;SDS011;6720;51.958;4.540;2023-05-10T10:16:53;10.33;;;9.43;;
13303;SDS011;6720;51.958;4.540;2023-05-10T10:19:19;9.80;;;8.80;;
13303;SDS011;6720;51.958;4.540;2023-05-10T10:21:45;9.43;;;7.80;;
13303;SDS011;6720;51.958;4.540;2023-05-10T10:24:11;8.10;;;7.10;;
13303;SDS011;6720;51.958;4.540;2023-05-10T10:26:37;7.63;;;6.80;;
13303;SDS011;6720;51.958;4.540;2023-05-10T10:31:49;7.70;;;6.97;;
13303;SDS011;6720;51.958;4.540;2023-05-10T10:34:29;8.70;;;6.70;;
13303;SDS011;6720;51.958;4.540;2023-05-10T10:36:56;8.07;;;7.23;;
13303;SDS011;6720;51.958;4.540;2023-05-10T10:39:23;8.40;;;7.50;;
13303;SDS011;6720;51.958;4.540;2023-05-10T10:41:55;9.67;;;8.57;;
13303;SDS011;6720;51.958;4.540;2023-05-10T10:52:22;10.40;;;7.73;;
13303;SDS011;6720;51.958;4.540;2023-05-10T10:54:56;8.73;;;7.83;;
13303;SDS011;6720;51.958;4.540;2023-05-10T10:57:24;10.10;;;7.40;;
13303;SDS011;6720;51.958;4.540;2023-05-10T10:59:53;11.83;;;7.97;;
13303;SDS011;6720;51.958;4.540;2023-05-10T11:08:01;11.87;;;10.60;;
13303;SDS011;6720;51.958;4.540;2023-05-10T11:10:34;10.60;;;9.60;;
13303;SDS011;6720;51.958;4.540;2023-05-10T11:13:00;11.17;;;10.07;;
13303;SDS011;6720;51.958;4.540;2023-05-10T11:15:37;9.97;;;9.07;;
13303;SDS011;6720;51.958;4.540;2023-05-10T11:18:16;10.63;;;9.57;;
13303;SDS011;6720;51.958;4.540;2023-05-10T11:20:42;10.20;;;9.23;;
13303;SDS011;6720;51.958;4.540;2023-05-10T11:23:11;10.10;;;9.20;;
13303;SDS011;6720;51.958;4.540;2023-05-10T11:25:42;9.43;;;8.53;;
13303;SDS011;6720;51.958;4.540;2023-05-10T11:28:09;10.17;;;9.17;;
13303;SDS011;6720;51.958;4.540;2023-05-10T11:30:35;8.77;;;8.00;;
13303;SDS011;6720;51.958;4.540;2023-05-10T11:33:02;10.10;;;8.97;;
13303;SDS011;6720;51.958;4.540;2023-05-10T11:35:27;10.33;;;9.40;;
13303;SDS011;6720;51.958;4.540;2023-05-10T11:37:53;10.73;;;9.80;;
13303;SDS011;6720;51.958;4.540;2023-05-10T11:40:18;11.60;;;10.40;;
13303;SDS011;6720;51.958;4.540;2023-05-10T11:42:44;11.33;;;10.30;;
13303;SDS011;6720;51.958;4.540;2023-05-10T11:45:10;10.20;;;9.33;;
13303;SDS011;6720;51.958;4.540;2023-05-10T11:47:36;11.20;;;10.10;;
13303;SDS011;6720;51.958;4.540;2023-05-10T11:50:02;12.40;;;11.27;;
13303;SDS011;6720;51.958;4.540;2023-05-10T11:52:27;10.23;;;9.33;;
13303;SDS011;6720;51.958;4.540;2023-05-10T11:54:54;10.10;;;9.00;;
13303;SDS011;6720;51.958;4.540;2023-05-10T11:57:20;10.77;;;9.77;;
13303;SDS011;6720;51.958;4.540;2023-05-10T11:59:53;11.57;;;9.63;;
13303;SDS011;6720;51.958;4.540;2023-05-10T12:02:20;10.13;;;9.20;;
13303;SDS011;6720;51.958;4.540;2023-05-10T12:04:45;12.33;;;10.43;;
13303;SDS011;6720;51.958;4.540;2023-05-10T12:07:11;10.93;;;9.77;;
13303;SDS011;6720;51.958;4.540;2023-05-10T12:09:42;11.60;;;9.33;;
13303;SDS011;6720;51.958;4.540;2023-05-10T12:12:10;11.27;;;10.07;;
13303;SDS011;6720;51.958;4.540;2023-05-10T12:14:40;11.17;;;10.07;;
13303;SDS011;6720;51.958;4.540;2023-05-10T12:17:06;12.10;;;10.90;;
13303;SDS011;6720;51.958;4.540;2023-05-10T12:19:39;12.17;;;10.93;;
13303;SDS011;6720;51.958;4.540;2023-05-10T12:22:05;13.33;;;10.43;;
13303;SDS011;6720;51.958;4.540;2023-05-10T12:24:33;12.57;;;10.30;;
13303;SDS011;6720;51.958;4.540;2023-05-10T12:26:59;11.60;;;10.40;;
13303;SDS011;6720;51.958;4.540;2023-05-10T12:29:29;13.13;;;10.50;;
13303;SDS011;6720;51.958;4.540;2023-05-10T12:31:56;10.63;;;9.10;;
13303;SDS011;6720;51.958;4.540;2023-05-10T12:37:07;10.80;;;9.00;;
13303;SDS011;6720;51.958;4.540;2023-05-10T12:39:41;13.37;;;9.60;;
13303;SDS011;6720;51.958;4.540;2023-05-10T12:42:07;13.20;;;10.50;;
13303;SDS011;6720;51.958;4.540;2023-05-10T12:44:34;13.30;;;10.10;;
13303;SDS011;6720;51.958;4.540;2023-05-10T12:46:59;13.67;;;10.23;;
13303;SDS011;6720;51.958;4.540;2023-05-10T12:49:24;11.70;;;9.47;;
13303;SDS011;6720;51.958;4.540;2023-05-10T12:51:50;11.83;;;9.20;;
13303;SDS011;6720;51.958;4.540;2023-05-10T12:54:15;10.43;;;9.33;;
13303;SDS011;6720;51.958;4.540;2023-05-10T12:56:41;12.87;;;8.73;;
13303;SDS011;6720;51.958;4.540;2023-05-10T12:59:07;9.43;;;8.20;;
13303;SDS011;6720;51.958;4.540;2023-05-10T13:01:33;8.20;;;6.90;;
13303;SDS011;6720;51.958;4.540;2023-05-10T13:03:58;11.17;;;7.30;;
13303;SDS011;6720;51.958;4.540;2023-05-10T13:06:25;8.40;;;6.43;;
13303;SDS011;6720;51.958;4.540;2023-05-10T13:08:50;8.43;;;6.87;;
13303;SDS011;6720;51.958;4.540;2023-05-10T13:11:16;8.10;;;6.57;;
13303;SDS011;6720;51.958;4.540;2023-05-10T13:13:44;8.33;;;6.63;;
13303;SDS011;6720;51.958;4.540;2023-05-10T13:16:10;8.60;;;7.13;;
13303;SDS011;6720;51.958;4.540;2023-05-10T13:18:35;9.43;;;7.27;;
13303;SDS011;6720;51.958;4.540;2023-05-10T13:21:20;7.90;;;7.00;;
13303;SDS011;6720;51.958;4.540;2023-05-10T13:23:46;7.63;;;6.93;;
13303;SDS011;6720;51.958;4.540;2023-05-10T13:26:11;11.23;;;7.17;;
13303;SDS011;6720;51.958;4.540;2023-05-10T13:28:37;8.30;;;7.30;;
13303;SDS011;6720;51.958;4.540;2023-05-10T13:31:03;8.47;;;6.77;;
13303;SDS011;6720;51.958;4.540;2023-05-10T13:33:29;9.37;;;7.23;;
13303;SDS011;6720;51.958;4.540;2023-05-10T13:35:55;8.63;;;7.17;;
13303;SDS011;6720;51.958;4.540;2023-05-10T13:38:20;8.40;;;6.87;;
13303;SDS011;6720;51.958;4.540;2023-05-10T13:40:46;8.20;;;6.80;;
13303;SDS011;6720;51.958;4.540;2023-05-10T13:43:11;8.80;;;5.80;;
13303;SDS011;6720;51.958;4.540;2023-05-10T13:45:37;7.87;;;6.23;;
13303;SDS011;6720;51.958;4.540;2023-05-10T13:48:02;5.27;;;4.80;;
13303;SDS011;6720;51.958;4.540;2023-05-10T13:50:28;5.80;;;4.77;;
13303;SDS011;6720;51.958;4.540;2023-05-10T13:52:53;5.70;;;4.60;;
13303;SDS011;6720;51.958;4.540;2023-05-10T13:55:18;6.20;;;4.80;;
13303;SDS011;6720;51.958;4.540;2023-05-10T13:57:44;6.37;;;5.50;;
13303;SDS011;6720;51.958;4.540;2023-05-10T14:00:09;7.67;;;6.17;;
13303;SDS011;6720;51.958;4.540;2023-05-10T14:02:35;6.53;;;5.93;;
13303;SDS011;6720;51.958;4.540;2023-05-10T14:05:01;7.93;;;5.70;;
13303;SDS011;6720;51.958;4.540;2023-05-10T14:07:26;6.57;;;5.20;;
13303;SDS011;6720;51.958;4.540;2023-05-10T14:09:52;7.73;;;5.57;;
13303;SDS011;6720;51.958;4.540;2023-05-10T14:12:17;6.33;;;4.90;;
13303;SDS011;6720;51.958;4.540;2023-05-10T14:14:43;6.53;;;4.83;;
13303;SDS011;6720;51.958;4.540;2023-05-10T14:17:08;57.80;;;51.97;;
13303;SDS011;6720;51.958;4.540;2023-05-10T14:19:33;7.97;;;6.43;;
13303;SDS011;6720;51.958;4.540;2023-05-10T14:21:59;11.87;;;10.63;;
13303;SDS011;6720;51.958;4.540;2023-05-10T14:24:24;8.63;;;6.30;;
13303;SDS011;6720;51.958;4.540;2023-05-10T14:26:50;11.70;;;9.53;;
13303;SDS011;6720;51.958;4.540;2023-05-10T14:29:18;22.47;;;20.17;;
13303;SDS011;6720;51.958;4.540;2023-05-10T14:31:44;13.93;;;12.23;;
13303;SDS011;6720;51.958;4.540;2023-05-10T14:34:09;9.73;;;6.77;;
13303;SDS011;6720;51.958;4.540;2023-05-10T14:36:35;8.10;;;6.70;;
13303;SDS011;6720;51.958;4.540;2023-05-10T14:39:00;10.60;;;9.50;;
13303;SDS011;6720;51.958;4.540;2023-05-10T14:41:25;8.33;;;6.83;;
13303;SDS011;6720;51.958;4.540;2023-05-10T14:43:51;11.70;;;9.57;;
13303;SDS011;6720;51.958;4.540;2023-05-10T14:46:16;8.60;;;6.93;;
13303;SDS011;6720;51.958;4.540;2023-05-10T14:48:42;10.60;;;9.13;;
13303;SDS011;6720;51.958;4.540;2023-05-10T14:51:07;7.70;;;6.90;;
13303;SDS011;6720;51.958;4.540;2023-05-10T14:53:32;7.70;;;6.93;;
13303;SDS011;6720;51.958;4.540;2023-05-10T14:55:58;8.70;;;7.77;;
13303;SDS011;6720;51.958;4.540;2023-05-10T14:58:26;9.87;;;7.70;;
13303;SDS011;6720;51.958;4.540;2023-05-10T15:00:52;8.20;;;7.33;;
13303;SDS011;6720;51.958;4.540;2023-05-10T15:03:17;6.77;;;6.07;;
13303;SDS011;6720;51.958;4.540;2023-05-10T15:05:43;6.90;;;6.10;;
13303;SDS011;6720;51.958;4.540;2023-05-10T15:08:08;8.23;;;6.53;;
13303;SDS011;6720;51.958;4.540;2023-05-10T15:10:34;8.20;;;5.77;;
13303;SDS011;6720;51.958;4.540;2023-05-10T15:13:00;6.37;;;5.77;;